sensor_id;sensor_type;location;lat;lon;timestamp;P1;durP1;ratioP1;P2;durP2;ratioP2
56321;SDS011;42227;6.376;-10.782;2023-08-07T00:00:36;21.10;;;8.35;;
56321;SDS011;42227;6.376;-10.782;2023-08-07T00:03:05;15.82;;;7.47;;
56321;SDS011;42227;6.376;-10.782;2023-08-07T00:05:33;20.58;;;9.15;;
56321;SDS011;42227;6.376;-10.782;2023-08-07T00:08:03;15.25;;;8.48;;
56321;SDS011;42227;6.376;-10.782;2023-08-07T00:10:31;25.85;;;9.48;;
56321;SDS011;42227;6.376;-10.782;2023-08-07T00:13:00;13.02;;;8.30;;
56321;SDS011;42227;6.376;-10.782;2023-08-07T00:15:28;17.85;;;8.75;;
56321;SDS011;42227;6.376;-10.782;2023-08-07T00:17:57;28.85;;;8.07;;
56321;SDS011;42227;6.376;-10.782;2023-08-07T00:20:25;12.65;;;6.65;;
56321;SDS011;42227;6.376;-10.782;2023-08-07T00:22:54;26.85;;;7.45;;
56321;SDS011;42227;6.376;-10.782;2023-08-07T00:25:22;21.92;;;8.75;;
56321;SDS011;42227;6.376;-10.782;2023-08-07T00:27:50;22.98;;;7.93;;
56321;SDS011;42227;6.376;-10.782;2023-08-07T00:30:19;18.20;;;9.27;;
56321;SDS011;42227;6.376;-10.782;2023-08-07T00:32:47;10.18;;;7.30;;
56321;SDS011;42227;6.376;-10.782;2023-08-07T00:35:16;13.75;;;8.10;;
56321;SDS011;42227;6.376;-10.782;2023-08-07T00:37:44;7.90;;;4.68;;
56321;SDS011;42227;6.376;-10.782;2023-08-07T00:40:13;10.75;;;4.53;;
56321;SDS011;42227;6.376;-10.782;2023-08-07T00:42:41;9.00;;;4.43;;
56321;SDS011;42227;6.376;-10.782;2023-08-07T00:45:10;8.93;;;3.95;;
56321;SDS011;42227;6.376;-10.782;2023-08-07T00:47:38;16.65;;;5.18;;
56321;SDS011;42227;6.376;-10.782;2023-08-07T00:50:07;8.75;;;3.65;;
56321;SDS011;42227;6.376;-10.782;2023-08-07T00:52:36;19.13;;;5.18;;
56321;SDS011;42227;6.376;-10.782;2023-08-07T00:55:05;5.63;;;3.13;;
56321;SDS011;42227;6.376;-10.782;2023-08-07T00:57:33;8.07;;;4.32;;
56321;SDS011;42227;6.376;-10.782;2023-08-07T01:00:02;14.27;;;4.43;;
56321;SDS011;42227;6.376;-10.782;2023-08-07T01:02:30;5.25;;;3.38;;
56321;SDS011;42227;6.376;-10.782;2023-08-07T01:04:59;8.80;;;4.30;;
56321;SDS011;42227;6.376;-10.782;2023-08-07T01:07:28;7.03;;;3.90;;
56321;SDS011;42227;6.376;-10.782;2023-08-07T01:09:56;10.38;;;3.80;;
56321;SDS011;42227;6.376;-10.782;2023-08-07T01:12:27;19.88;;;4.22;;
56321;SDS011;42227;6.376;-10.782;2023-08-07T01:17:43;5.68;;;3.47;;
56321;SDS011;42227;6.376;-10.782;2023-08-07T01:20:13;12.93;;;4.40;;
56321;SDS011;42227;6.376;-10.782;2023-08-07T01:22:42;6.47;;;4.20;;
56321;SDS011;42227;6.376;-10.782;2023-08-07T01:25:10;4.43;;;3.17;;
56321;SDS011;42227;6.376;-10.782;2023-08-07T01:27:44;8.43;;;3.53;;
56321;SDS011;42227;6.376;-10.782;2023-08-07T01:33:10;7.82;;;3.45;;
56321;SDS011;42227;6.376;-10.782;2023-08-07T01:36:01;8.30;;;3.53;;
56321;SDS011;42227;6.376;-10.782;2023-08-07T01:38:32;6.53;;;3.22;;
56321;SDS011;42227;6.376;-10.782;2023-08-07T01:41:02;5.35;;;3.30;;
56321;SDS011;42227;6.376;-10.782;2023-08-07T01:43:31;4.82;;;3.33;;
56321;SDS011;42227;6.376;-10.782;2023-08-07T01:46:01;4.25;;;2.60;;
56321;SDS011;42227;6.376;-10.782;2023-08-07T01:48:29;5.72;;;3.55;;
56321;SDS011;42227;6.376;-10.782;2023-08-07T01:50:58;4.45;;;3.13;;
56321;SDS011;42227;6.376;-10.782;2023-08-07T01:53:26;8.05;;;3.53;;
56321;SDS011;42227;6.376;-10.782;2023-08-07T01:55:55;4.78;;;2.45;;
56321;SDS011;42227;6.376;-10.782;2023-08-07T01:58:23;4.05;;;2.20;;
56321;SDS011;42227;6.376;-10.782;2023-08-07T02:00:52;8.48;;;3.13;;
56321;SDS011;42227;6.376;-10.782;2023-08-07T02:03:20;4.22;;;2.40;;
56321;SDS011;42227;6.376;-10.782;2023-08-07T02:05:49;4.30;;;2.88;;
56321;SDS011;42227;6.376;-10.782;2023-08-07T02:08:17;8.32;;;3.20;;
56321;SDS011;42227;6.376;-10.782;2023-08-07T02:10:46;5.18;;;2.85;;
56321;SDS011;42227;6.376;-10.782;2023-08-07T02:13:14;4.28;;;2.53;;
56321;SDS011;42227;6.376;-10.782;2023-08-07T02:15:43;3.50;;;2.63;;
56321;SDS011;42227;6.376;-10.782;2023-08-07T02:18:12;3.60;;;2.42;;
56321;SDS011;42227;6.376;-10.782;2023-08-07T02:20:40;4.20;;;2.25;;
56321;SDS011;42227;6.376;-10.782;2023-08-07T02:23:09;5.88;;;3.42;;
56321;SDS011;42227;6.376;-10.782;2023-08-07T02:25:37;4.55;;;2.42;;
56321;SDS011;42227;6.376;-10.782;2023-08-07T02:28:05;5.32;;;3.45;;
56321;SDS011;42227;6.376;-10.782;2023-08-07T02:30:34;7.72;;;3.45;;
56321;SDS011;42227;6.376;-10.782;2023-08-07T02:33:02;8.75;;;4.03;;
56321;SDS011;42227;6.376;-10.782;2023-08-07T02:35:31;8.68;;;3.67;;
56321;SDS011;42227;6.376;-10.782;2023-08-07T02:37:59;5.72;;;2.53;;
56321;SDS011;42227;6.376;-10.782;2023-08-07T02:40:27;10.80;;;4.20;;
56321;SDS011;42227;6.376;-10.782;2023-08-07T02:42:56;5.65;;;3.35;;
56321;SDS011;42227;6.376;-10.782;2023-08-07T02:45:24;2.97;;;1.98;;
56321;SDS011;42227;6.376;-10.782;2023-08-07T02:47:53;5.35;;;1.95;;
56321;SDS011;42227;6.376;-10.782;2023-08-07T02:50:21;9.20;;;2.83;;
56321;SDS011;42227;6.376;-10.782;2023-08-07T02:52:50;11.80;;;3.92;;
56321;SDS011;42227;6.376;-10.782;2023-08-07T02:55:18;20.38;;;2.92;;
56321;SDS011;42227;6.376;-10.782;2023-08-07T02:57:47;6.60;;;3.03;;
56321;SDS011;42227;6.376;-10.782;2023-08-07T03:00:15;4.32;;;2.15;;
56321;SDS011;42227;6.376;-10.782;2023-08-07T03:02:44;5.10;;;3.88;;
56321;SDS011;42227;6.376;-10.782;2023-08-07T03:05:12;11.00;;;4.57;;
56321;SDS011;42227;6.376;-10.782;2023-08-07T03:07:41;7.72;;;4.88;;
56321;SDS011;42227;6.376;-10.782;2023-08-07T03:10:10;6.72;;;4.82;;
56321;SDS011;42227;6.376;-10.782;2023-08-07T03:12:38;9.07;;;4.88;;
56321;SDS011;42227;6.376;-10.782;2023-08-07T03:15:07;5.50;;;3.95;;
56321;SDS011;42227;6.376;-10.782;2023-08-07T03:17:35;12.55;;;5.53;;
56321;SDS011;42227;6.376;-10.782;2023-08-07T03:20:04;12.48;;;6.65;;
56321;SDS011;42227;6.376;-10.782;2023-08-07T03:22:33;19.17;;;6.13;;
56321;SDS011;42227;6.376;-10.782;2023-08-07T03:25:01;6.90;;;5.40;;
56321;SDS011;42227;6.376;-10.782;2023-08-07T03:27:30;12.50;;;7.72;;
56321;SDS011;42227;6.376;-10.782;2023-08-07T03:29:59;12.55;;;7.00;;
56321;SDS011;42227;6.376;-10.782;2023-08-07T03:32:29;8.48;;;6.60;;
56321;SDS011;42227;6.376;-10.782;2023-08-07T03:34:57;7.55;;;6.15;;
56321;SDS011;42227;6.376;-10.782;2023-08-07T03:37:26;11.82;;;7.65;;
56321;SDS011;42227;6.376;-10.782;2023-08-07T03:39:54;10.77;;;6.43;;
56321;SDS011;42227;6.376;-10.782;2023-08-07T03:42:23;8.02;;;6.90;;
56321;SDS011;42227;6.376;-10.782;2023-08-07T03:44:55;10.98;;;7.88;;
56321;SDS011;42227;6.376;-10.782;2023-08-07T03:47:24;10.80;;;6.95;;
56321;SDS011;42227;6.376;-10.782;2023-08-07T03:49:52;7.30;;;4.78;;
56321;SDS011;42227;6.376;-10.782;2023-08-07T03:52:23;8.30;;;6.10;;
56321;SDS011;42227;6.376;-10.782;2023-08-07T03:54:52;11.90;;;7.28;;
56321;SDS011;42227;6.376;-10.782;2023-08-07T03:57:20;13.77;;;8.38;;
56321;SDS011;42227;6.376;-10.782;2023-08-07T03:59:49;14.18;;;7.75;;
56321;SDS011;42227;6.376;-10.782;2023-08-07T04:02:18;12.57;;;9.00;;
56321;SDS011;42227;6.376;-10.782;2023-08-07T04:04:46;11.85;;;8.25;;
56321;SDS011;42227;6.376;-10.782;2023-08-07T04:07:15;13.02;;;6.63;;
56321;SDS011;42227;6.376;-10.782;2023-08-07T04:09:43;18.85;;;8.98;;
56321;SDS011;42227;6.376;-10.782;2023-08-07T04:12:11;13.30;;;7.60;;
56321;SDS011;42227;6.376;-10.782;2023-08-07T04:14:40;16.92;;;9.32;;
56321;SDS011;42227;6.376;-10.782;2023-08-07T04:17:08;10.15;;;6.43;;
56321;SDS011;42227;6.376;-10.782;2023-08-07T04:19:37;12.68;;;6.15;;
56321;SDS011;42227;6.376;-10.782;2023-08-07T04:22:05;17.10;;;5.35;;
56321;SDS011;42227;6.376;-10.782;2023-08-07T04:24:34;11.57;;;6.50;;
56321;SDS011;42227;6.376;-10.782;2023-08-07T04:27:02;7.63;;;5.57;;
56321;SDS011;42227;6.376;-10.782;2023-08-07T04:29:31;20.15;;;7.93;;
56321;SDS011;42227;6.376;-10.782;2023-08-07T04:31:59;9.52;;;5.90;;
56321;SDS011;42227;6.376;-10.782;2023-08-07T04:34:27;9.50;;;5.90;;
56321;SDS011;42227;6.376;-10.782;2023-08-07T04:36:56;10.15;;;6.47;;
56321;SDS011;42227;6.376;-10.782;2023-08-07T04:39:24;9.07;;;6.05;;
56321;SDS011;42227;6.376;-10.782;2023-08-07T04:41:53;9.13;;;5.95;;
56321;SDS011;42227;6.376;-10.782;2023-08-07T04:44:21;11.27;;;5.50;;
56321;SDS011;42227;6.376;-10.782;2023-08-07T04:46:49;5.00;;;4.03;;
56321;SDS011;42227;6.376;-10.782;2023-08-07T04:49:18;20.98;;;7.40;;
56321;SDS011;42227;6.376;-10.782;2023-08-07T04:51:47;11.82;;;6.57;;
56321;SDS011;42227;6.376;-10.782;2023-08-07T04:54:15;8.90;;;5.53;;
56321;SDS011;42227;6.376;-10.782;2023-08-07T04:56:43;9.68;;;4.68;;
56321;SDS011;42227;6.376;-10.782;2023-08-07T04:59:12;7.82;;;4.63;;
56321;SDS011;42227;6.376;-10.782;2023-08-07T05:01:40;11.20;;;4.47;;
56321;SDS011;42227;6.376;-10.782;2023-08-07T05:04:09;7.43;;;4.28;;
56321;SDS011;42227;6.376;-10.782;2023-08-07T05:06:37;16.83;;;4.78;;
56321;SDS011;42227;6.376;-10.782;2023-08-07T05:09:06;12.15;;;5.03;;
56321;SDS011;42227;6.376;-10.782;2023-08-07T05:11:34;13.05;;;7.40;;
56321;SDS011;42227;6.376;-10.782;2023-08-07T05:14:03;11.95;;;5.20;;
56321;SDS011;42227;6.376;-10.782;2023-08-07T05:16:31;11.82;;;5.53;;
56321;SDS011;42227;6.376;-10.782;2023-08-07T05:19:00;8.73;;;5.55;;
56321;SDS011;42227;6.376;-10.782;2023-08-07T05:21:28;10.23;;;6.25;;
56321;SDS011;42227;6.376;-10.782;2023-08-07T05:23:57;8.00;;;5.07;;
56321;SDS011;42227;6.376;-10.782;2023-08-07T05:26:25;11.18;;;5.47;;
56321;SDS011;42227;6.376;-10.782;2023-08-07T05:28:54;7.72;;;6.00;;
56321;SDS011;42227;6.376;-10.782;2023-08-07T05:31:24;14.13;;;5.95;;
56321;SDS011;42227;6.376;-10.782;2023-08-07T05:33:55;19.38;;;9.27;;
56321;SDS011;42227;6.376;-10.782;2023-08-07T05:36:24;13.15;;;7.70;;
56321;SDS011;42227;6.376;-10.782;2023-08-07T05:38:54;8.90;;;5.05;;
56321;SDS011;42227;6.376;-10.782;2023-08-07T05:41:22;6.05;;;3.60;;
56321;SDS011;42227;6.376;-10.782;2023-08-07T05:43:51;6.28;;;4.32;;
56321;SDS011;42227;6.376;-10.782;2023-08-07T05:46:19;23.92;;;21.27;;
56321;SDS011;42227;6.376;-10.782;2023-08-07T05:48:48;47.15;;;42.67;;
56321;SDS011;42227;6.376;-10.782;2023-08-07T05:51:16;55.88;;;50.20;;
56321;SDS011;42227;6.376;-10.782;2023-08-07T05:53:45;17.85;;;13.20;;
56321;SDS011;42227;6.376;-10.782;2023-08-07T05:56:13;12.57;;;7.13;;
56321;SDS011;42227;6.376;-10.782;2023-08-07T05:58:42;14.48;;;8.10;;
56321;SDS011;42227;6.376;-10.782;2023-08-07T06:01:10;7.60;;;5.57;;
56321;SDS011;42227;6.376;-10.782;2023-08-07T06:03:39;7.95;;;3.85;;
56321;SDS011;42227;6.376;-10.782;2023-08-07T06:06:07;10.85;;;3.60;;
56321;SDS011;42227;6.376;-10.782;2023-08-07T06:08:36;11.75;;;6.25;;
56321;SDS011;42227;6.376;-10.782;2023-08-07T06:11:04;7.43;;;3.45;;
56321;SDS011;42227;6.376;-10.782;2023-08-07T06:13:33;8.65;;;4.43;;
56321;SDS011;42227;6.376;-10.782;2023-08-07T06:16:02;7.20;;;3.90;;
56321;SDS011;42227;6.376;-10.782;2023-08-07T06:18:31;6.72;;;3.47;;
56321;SDS011;42227;6.376;-10.782;2023-08-07T06:21:00;5.57;;;4.00;;
56321;SDS011;42227;6.376;-10.782;2023-08-07T06:23:28;13.70;;;9.52;;
56321;SDS011;42227;6.376;-10.782;2023-08-07T06:25:57;14.15;;;7.85;;
56321;SDS011;42227;6.376;-10.782;2023-08-07T06:28:25;10.32;;;5.78;;
56321;SDS011;42227;6.376;-10.782;2023-08-07T06:30:59;9.27;;;6.25;;
56321;SDS011;42227;6.376;-10.782;2023-08-07T06:33:29;9.30;;;6.20;;
56321;SDS011;42227;6.376;-10.782;2023-08-07T06:35:58;11.43;;;4.63;;
56321;SDS011;42227;6.376;-10.782;2023-08-07T06:38:27;8.35;;;4.53;;
56321;SDS011;42227;6.376;-10.782;2023-08-07T06:40:56;7.10;;;4.03;;
56321;SDS011;42227;6.376;-10.782;2023-08-07T06:43:25;8.65;;;3.95;;
56321;SDS011;42227;6.376;-10.782;2023-08-07T06:45:54;7.07;;;4.65;;
56321;SDS011;42227;6.376;-10.782;2023-08-07T06:48:23;8.52;;;4.30;;
56321;SDS011;42227;6.376;-10.782;2023-08-07T06:50:52;9.88;;;4.28;;
56321;SDS011;42227;6.376;-10.782;2023-08-07T06:53:20;8.57;;;4.03;;
56321;SDS011;42227;6.376;-10.782;2023-08-07T06:55:49;9.35;;;5.80;;
56321;SDS011;42227;6.376;-10.782;2023-08-07T06:58:17;10.90;;;7.20;;
56321;SDS011;42227;6.376;-10.782;2023-08-07T07:00:46;10.15;;;7.78;;
56321;SDS011;42227;6.376;-10.782;2023-08-07T07:03:14;12.82;;;7.93;;
56321;SDS011;42227;6.376;-10.782;2023-08-07T07:05:42;8.18;;;6.40;;
56321;SDS011;42227;6.376;-10.782;2023-08-07T07:08:11;12.52;;;8.27;;
56321;SDS011;42227;6.376;-10.782;2023-08-07T07:10:39;8.90;;;6.72;;
56321;SDS011;42227;6.376;-10.782;2023-08-07T07:13:09;7.03;;;4.63;;
56321;SDS011;42227;6.376;-10.782;2023-08-07T07:15:52;6.65;;;5.60;;
56321;SDS011;42227;6.376;-10.782;2023-08-07T07:18:21;8.05;;;5.47;;
56321;SDS011;42227;6.376;-10.782;2023-08-07T07:20:56;7.88;;;5.53;;
56321;SDS011;42227;6.376;-10.782;2023-08-07T07:23:26;8.57;;;6.20;;
56321;SDS011;42227;6.376;-10.782;2023-08-07T07:25:55;10.88;;;5.40;;
56321;SDS011;42227;6.376;-10.782;2023-08-07T07:28:24;7.75;;;5.60;;
56321;SDS011;42227;6.376;-10.782;2023-08-07T07:30:52;9.02;;;5.63;;
56321;SDS011;42227;6.376;-10.782;2023-08-07T07:33:21;9.48;;;8.32;;
56321;SDS011;42227;6.376;-10.782;2023-08-07T07:35:49;10.95;;;7.45;;
56321;SDS011;42227;6.376;-10.782;2023-08-07T07:38:19;9.57;;;7.63;;
56321;SDS011;42227;6.376;-10.782;2023-08-07T07:40:48;11.25;;;6.47;;
56321;SDS011;42227;6.376;-10.782;2023-08-07T07:43:17;9.65;;;6.50;;
56321;SDS011;42227;6.376;-10.782;2023-08-07T07:45:45;9.60;;;5.82;;
56321;SDS011;42227;6.376;-10.782;2023-08-07T07:48:14;25.83;;;10.15;;
56321;SDS011;42227;6.376;-10.782;2023-08-07T07:50:42;15.60;;;11.55;;
56321;SDS011;42227;6.376;-10.782;2023-08-07T07:53:11;12.20;;;9.82;;
56321;SDS011;42227;6.376;-10.782;2023-08-07T07:55:46;12.13;;;9.27;;
56321;SDS011;42227;6.376;-10.782;2023-08-07T07:58:15;15.50;;;7.57;;
56321;SDS011;42227;6.376;-10.782;2023-08-07T08:00:43;14.35;;;9.75;;
56321;SDS011;42227;6.376;-10.782;2023-08-07T08:03:11;15.48;;;9.07;;
56321;SDS011;42227;6.376;-10.782;2023-08-07T08:05:41;10.55;;;7.63;;
56321;SDS011;42227;6.376;-10.782;2023-08-07T08:08:09;13.57;;;7.57;;
56321;SDS011;42227;6.376;-10.782;2023-08-07T08:10:38;8.63;;;7.03;;
56321;SDS011;42227;6.376;-10.782;2023-08-07T08:13:08;11.23;;;6.85;;
56321;SDS011;42227;6.376;-10.782;2023-08-07T08:16:49;9.13;;;7.45;;
56321;SDS011;42227;6.376;-10.782;2023-08-07T08:19:19;16.27;;;9.70;;
56321;SDS011;42227;6.376;-10.782;2023-08-07T08:21:48;13.38;;;8.98;;
56321;SDS011;42227;6.376;-10.782;2023-08-07T08:24:17;11.20;;;7.97;;
56321;SDS011;42227;6.376;-10.782;2023-08-07T08:26:45;14.13;;;9.30;;
56321;SDS011;42227;6.376;-10.782;2023-08-07T08:29:14;19.00;;;10.75;;
56321;SDS011;42227;6.376;-10.782;2023-08-07T08:31:43;14.82;;;11.90;;
56321;SDS011;42227;6.376;-10.782;2023-08-07T08:34:11;16.90;;;13.13;;
56321;SDS011;42227;6.376;-10.782;2023-08-07T08:36:40;17.70;;;12.48;;
56321;SDS011;42227;6.376;-10.782;2023-08-07T08:39:10;15.10;;;10.00;;
56321;SDS011;42227;6.376;-10.782;2023-08-07T08:41:42;24.02;;;11.77;;
56321;SDS011;42227;6.376;-10.782;2023-08-07T08:44:16;15.23;;;9.15;;
56321;SDS011;42227;6.376;-10.782;2023-08-07T08:46:47;13.88;;;8.98;;
56321;SDS011;42227;6.376;-10.782;2023-08-07T08:49:18;28.05;;;10.82;;
56321;SDS011;42227;6.376;-10.782;2023-08-07T08:51:53;13.93;;;9.82;;
56321;SDS011;42227;6.376;-10.782;2023-08-07T08:54:22;15.98;;;10.23;;
56321;SDS011;42227;6.376;-10.782;2023-08-07T08:56:51;25.27;;;10.05;;
56321;SDS011;42227;6.376;-10.782;2023-08-07T08:59:21;16.75;;;9.45;;
56321;SDS011;42227;6.376;-10.782;2023-08-07T09:01:50;13.95;;;9.07;;
56321;SDS011;42227;6.376;-10.782;2023-08-07T09:04:19;14.23;;;8.02;;
56321;SDS011;42227;6.376;-10.782;2023-08-07T09:06:48;10.00;;;8.57;;
56321;SDS011;42227;6.376;-10.782;2023-08-07T09:09:18;10.60;;;8.80;;
56321;SDS011;42227;6.376;-10.782;2023-08-07T09:11:48;12.75;;;7.97;;
56321;SDS011;42227;6.376;-10.782;2023-08-07T09:14:20;11.93;;;8.05;;
56321;SDS011;42227;6.376;-10.782;2023-08-07T09:16:52;14.15;;;8.75;;
56321;SDS011;42227;6.376;-10.782;2023-08-07T09:19:22;32.58;;;10.68;;
56321;SDS011;42227;6.376;-10.782;2023-08-07T09:21:57;9.57;;;7.28;;
56321;SDS011;42227;6.376;-10.782;2023-08-07T09:24:26;30.77;;;6.78;;
56321;SDS011;42227;6.376;-10.782;2023-08-07T09:26:55;6.72;;;5.97;;
56321;SDS011;42227;6.376;-10.782;2023-08-07T09:29:24;7.00;;;6.30;;
56321;SDS011;42227;6.376;-10.782;2023-08-07T09:31:54;8.18;;;4.85;;
56321;SDS011;42227;6.376;-10.782;2023-08-07T09:34:22;5.47;;;4.90;;
56321;SDS011;42227;6.376;-10.782;2023-08-07T09:36:51;8.63;;;3.95;;
56321;SDS011;42227;6.376;-10.782;2023-08-07T09:39:23;7.07;;;4.28;;
56321;SDS011;42227;6.376;-10.782;2023-08-07T09:41:53;5.32;;;3.92;;
56321;SDS011;42227;6.376;-10.782;2023-08-07T09:44:22;29.02;;;7.68;;
56321;SDS011;42227;6.376;-10.782;2023-08-07T09:46:50;10.68;;;6.70;;
56321;SDS011;42227;6.376;-10.782;2023-08-07T09:49:19;7.93;;;4.70;;
56321;SDS011;42227;6.376;-10.782;2023-08-07T09:51:49;7.15;;;3.63;;
56321;SDS011;42227;6.376;-10.782;2023-08-07T09:54:17;7.35;;;3.75;;
56321;SDS011;42227;6.376;-10.782;2023-08-07T09:56:46;5.65;;;3.20;;
56321;SDS011;42227;6.376;-10.782;2023-08-07T09:59:15;6.60;;;3.80;;
56321;SDS011;42227;6.376;-10.782;2023-08-07T10:01:44;5.22;;;4.63;;
56321;SDS011;42227;6.376;-10.782;2023-08-07T10:04:13;9.25;;;7.20;;
56321;SDS011;42227;6.376;-10.782;2023-08-07T10:06:42;9.80;;;4.65;;
56321;SDS011;42227;6.376;-10.782;2023-08-07T10:09:11;12.02;;;6.95;;
56321;SDS011;42227;6.376;-10.782;2023-08-07T10:11:40;16.08;;;9.35;;
56321;SDS011;42227;6.376;-10.782;2023-08-07T10:14:09;11.10;;;5.72;;
56321;SDS011;42227;6.376;-10.782;2023-08-07T10:16:42;11.13;;;6.75;;
56321;SDS011;42227;6.376;-10.782;2023-08-07T10:19:10;8.52;;;5.20;;
56321;SDS011;42227;6.376;-10.782;2023-08-07T10:21:39;9.30;;;4.72;;
56321;SDS011;42227;6.376;-10.782;2023-08-07T10:24:09;10.40;;;4.25;;
56321;SDS011;42227;6.376;-10.782;2023-08-07T10:26:39;17.10;;;8.98;;
56321;SDS011;42227;6.376;-10.782;2023-08-07T10:29:16;38.83;;;13.07;;
56321;SDS011;42227;6.376;-10.782;2023-08-07T10:31:47;16.42;;;9.02;;
56321;SDS011;42227;6.376;-10.782;2023-08-07T10:34:17;18.02;;;9.48;;
56321;SDS011;42227;6.376;-10.782;2023-08-07T10:36:47;24.63;;;9.43;;
56321;SDS011;42227;6.376;-10.782;2023-08-07T10:39:15;11.20;;;4.00;;
56321;SDS011;42227;6.376;-10.782;2023-08-07T10:41:48;7.70;;;4.55;;
56321;SDS011;42227;6.376;-10.782;2023-08-07T10:44:22;9.13;;;3.47;;
56321;SDS011;42227;6.376;-10.782;2023-08-07T10:46:52;7.53;;;4.03;;
56321;SDS011;42227;6.376;-10.782;2023-08-07T10:52:09;22.38;;;10.57;;
56321;SDS011;42227;6.376;-10.782;2023-08-07T10:54:49;17.40;;;6.47;;
56321;SDS011;42227;6.376;-10.782;2023-08-07T10:57:18;5.80;;;3.97;;
56321;SDS011;42227;6.376;-10.782;2023-08-07T10:59:50;9.27;;;4.00;;
56321;SDS011;42227;6.376;-10.782;2023-08-07T11:04:54;7.93;;;4.07;;
56321;SDS011;42227;6.376;-10.782;2023-08-07T11:07:26;9.73;;;3.78;;
56321;SDS011;42227;6.376;-10.782;2023-08-07T11:09:58;8.27;;;4.45;;
56321;SDS011;42227;6.376;-10.782;2023-08-07T11:12:27;7.72;;;4.18;;
56321;SDS011;42227;6.376;-10.782;2023-08-07T11:14:57;6.68;;;3.75;;
56321;SDS011;42227;6.376;-10.782;2023-08-07T11:17:26;9.98;;;5.47;;
56321;SDS011;42227;6.376;-10.782;2023-08-07T11:19:56;11.05;;;6.40;;
56321;SDS011;42227;6.376;-10.782;2023-08-07T11:22:26;8.90;;;7.60;;
56321;SDS011;42227;6.376;-10.782;2023-08-07T11:24:54;11.00;;;7.78;;
56321;SDS011;42227;6.376;-10.782;2023-08-07T11:27:23;11.60;;;6.78;;
56321;SDS011;42227;6.376;-10.782;2023-08-07T11:29:52;14.00;;;6.40;;
56321;SDS011;42227;6.376;-10.782;2023-08-07T11:32:21;13.80;;;4.70;;
56321;SDS011;42227;6.376;-10.782;2023-08-07T11:34:53;6.72;;;5.00;;
56321;SDS011;42227;6.376;-10.782;2023-08-07T11:37:21;6.47;;;3.75;;
56321;SDS011;42227;6.376;-10.782;2023-08-07T11:39:50;9.20;;;4.60;;
56321;SDS011;42227;6.376;-10.782;2023-08-07T11:42:20;8.07;;;4.68;;
56321;SDS011;42227;6.376;-10.782;2023-08-07T11:44:49;11.43;;;4.57;;
56321;SDS011;42227;6.376;-10.782;2023-08-07T11:47:18;9.93;;;4.25;;
56321;SDS011;42227;6.376;-10.782;2023-08-07T11:49:47;11.50;;;4.07;;
56321;SDS011;42227;6.376;-10.782;2023-08-07T11:52:16;7.95;;;4.55;;
56321;SDS011;42227;6.376;-10.782;2023-08-07T11:54:46;8.65;;;4.95;;
56321;SDS011;42227;6.376;-10.782;2023-08-07T11:57:16;11.02;;;7.35;;
56321;SDS011;42227;6.376;-10.782;2023-08-07T11:59:52;8.07;;;6.75;;
56321;SDS011;42227;6.376;-10.782;2023-08-07T12:02:24;8.48;;;5.22;;
56321;SDS011;42227;6.376;-10.782;2023-08-07T12:04:57;9.10;;;6.53;;
56321;SDS011;42227;6.376;-10.782;2023-08-07T12:07:25;11.02;;;4.43;;
56321;SDS011;42227;6.376;-10.782;2023-08-07T12:10:01;8.57;;;4.10;;
56321;SDS011;42227;6.376;-10.782;2023-08-07T12:12:37;11.85;;;5.32;;
56321;SDS011;42227;6.376;-10.782;2023-08-07T12:15:09;8.45;;;5.20;;
56321;SDS011;42227;6.376;-10.782;2023-08-07T12:17:38;13.07;;;5.55;;
56321;SDS011;42227;6.376;-10.782;2023-08-07T12:20:07;10.95;;;5.80;;
56321;SDS011;42227;6.376;-10.782;2023-08-07T12:22:35;9.60;;;5.47;;
56321;SDS011;42227;6.376;-10.782;2023-08-07T12:25:04;8.40;;;5.90;;
56321;SDS011;42227;6.376;-10.782;2023-08-07T12:27:34;8.55;;;5.00;;
56321;SDS011;42227;6.376;-10.782;2023-08-07T12:30:03;9.68;;;4.40;;
56321;SDS011;42227;6.376;-10.782;2023-08-07T12:32:32;9.90;;;4.75;;
56321;SDS011;42227;6.376;-10.782;2023-08-07T12:37:36;10.15;;;5.32;;
56321;SDS011;42227;6.376;-10.782;2023-08-07T12:40:05;8.15;;;5.45;;
56321;SDS011;42227;6.376;-10.782;2023-08-07T12:42:39;8.00;;;3.53;;
56321;SDS011;42227;6.376;-10.782;2023-08-07T12:45:08;11.43;;;5.53;;
56321;SDS011;42227;6.376;-10.782;2023-08-07T12:47:37;10.27;;;3.90;;
56321;SDS011;42227;6.376;-10.782;2023-08-07T12:50:05;5.50;;;3.08;;
56321;SDS011;42227;6.376;-10.782;2023-08-07T12:52:34;7.30;;;4.53;;
56321;SDS011;42227;6.376;-10.782;2023-08-07T12:55:03;6.03;;;4.20;;
56321;SDS011;42227;6.376;-10.782;2023-08-07T12:57:32;8.30;;;4.30;;
56321;SDS011;42227;6.376;-10.782;2023-08-07T13:00:00;5.60;;;4.78;;
56321;SDS011;42227;6.376;-10.782;2023-08-07T13:02:29;12.40;;;5.68;;
56321;SDS011;42227;6.376;-10.782;2023-08-07T13:04:58;6.68;;;3.92;;
56321;SDS011;42227;6.376;-10.782;2023-08-07T13:07:27;5.30;;;3.63;;
56321;SDS011;42227;6.376;-10.782;2023-08-07T13:09:55;8.82;;;5.40;;
56321;SDS011;42227;6.376;-10.782;2023-08-07T13:12:24;8.43;;;4.22;;
56321;SDS011;42227;6.376;-10.782;2023-08-07T13:14:53;7.13;;;3.67;;
56321;SDS011;42227;6.376;-10.782;2023-08-07T13:17:21;11.75;;;5.57;;
56321;SDS011;42227;6.376;-10.782;2023-08-07T13:19:50;9.95;;;4.90;;
56321;SDS011;42227;6.376;-10.782;2023-08-07T13:22:18;15.48;;;7.95;;
56321;SDS011;42227;6.376;-10.782;2023-08-07T13:24:51;7.43;;;5.15;;
56321;SDS011;42227;6.376;-10.782;2023-08-07T13:27:20;8.10;;;5.43;;
56321;SDS011;42227;6.376;-10.782;2023-08-07T13:29:48;5.95;;;4.28;;
56321;SDS011;42227;6.376;-10.782;2023-08-07T13:32:16;11.68;;;5.95;;
56321;SDS011;42227;6.376;-10.782;2023-08-07T13:34:45;16.67;;;6.80;;
56321;SDS011;42227;6.376;-10.782;2023-08-07T13:37:13;13.30;;;7.60;;
56321;SDS011;42227;6.376;-10.782;2023-08-07T13:39:42;23.90;;;8.27;;
56321;SDS011;42227;6.376;-10.782;2023-08-07T13:42:10;6.80;;;4.10;;
56321;SDS011;42227;6.376;-10.782;2023-08-07T13:44:39;8.00;;;4.63;;
56321;SDS011;42227;6.376;-10.782;2023-08-07T13:47:07;6.88;;;4.10;;
56321;SDS011;42227;6.376;-10.782;2023-08-07T13:49:36;12.52;;;4.07;;
56321;SDS011;42227;6.376;-10.782;2023-08-07T13:52:04;19.90;;;3.40;;
56321;SDS011;42227;6.376;-10.782;2023-08-07T13:54:33;8.35;;;4.88;;
56321;SDS011;42227;6.376;-10.782;2023-08-07T13:57:02;12.75;;;4.28;;
56321;SDS011;42227;6.376;-10.782;2023-08-07T13:59:31;6.18;;;3.88;;
56321;SDS011;42227;6.376;-10.782;2023-08-07T14:01:59;13.68;;;4.95;;
56321;SDS011;42227;6.376;-10.782;2023-08-07T14:04:30;5.97;;;5.32;;
56321;SDS011;42227;6.376;-10.782;2023-08-07T14:07:01;13.50;;;6.50;;
56321;SDS011;42227;6.376;-10.782;2023-08-07T14:09:30;7.43;;;5.03;;
56321;SDS011;42227;6.376;-10.782;2023-08-07T14:11:58;13.32;;;4.43;;
56321;SDS011;42227;6.376;-10.782;2023-08-07T14:14:26;10.32;;;4.28;;
56321;SDS011;42227;6.376;-10.782;2023-08-07T14:16:55;8.13;;;5.07;;
56321;SDS011;42227;6.376;-10.782;2023-08-07T14:19:24;6.18;;;3.55;;
56321;SDS011;42227;6.376;-10.782;2023-08-07T14:21:52;4.65;;;3.63;;
56321;SDS011;42227;6.376;-10.782;2023-08-07T14:24:24;7.97;;;4.78;;
56321;SDS011;42227;6.376;-10.782;2023-08-07T14:26:53;8.18;;;4.05;;
56321;SDS011;42227;6.376;-10.782;2023-08-07T14:29:21;9.38;;;5.10;;
56321;SDS011;42227;6.376;-10.782;2023-08-07T14:31:50;8.32;;;3.50;;
56321;SDS011;42227;6.376;-10.782;2023-08-07T14:34:18;7.47;;;3.50;;
56321;SDS011;42227;6.376;-10.782;2023-08-07T14:36:47;7.70;;;5.55;;
56321;SDS011;42227;6.376;-10.782;2023-08-07T14:39:15;16.05;;;5.90;;
56321;SDS011;42227;6.376;-10.782;2023-08-07T14:41:44;13.25;;;6.35;;
56321;SDS011;42227;6.376;-10.782;2023-08-07T14:44:12;8.63;;;5.07;;
56321;SDS011;42227;6.376;-10.782;2023-08-07T14:46:41;15.55;;;5.82;;
56321;SDS011;42227;6.376;-10.782;2023-08-07T14:49:09;9.90;;;4.07;;
56321;SDS011;42227;6.376;-10.782;2023-08-07T14:51:38;7.88;;;5.63;;
56321;SDS011;42227;6.376;-10.782;2023-08-07T14:54:06;7.78;;;5.03;;